Aeroporto :
LOGIN :

Iscrizione | Disclaimer

   EN    FR    IT 

 










Sommario :    VFR   VFR Marginale   IFR   IFR Intensivo   IFR Molto Intensivo
Visibilità : 
Base nubi : 
>= 8 km
>= 3000ft
5 / 8 km
1000 / 3000 ft
1500m / 5 km
500 / 1000 ft
800 / 1500m
200 / 500 ft
< 800m
< 200 ft
Simboli :   Temporali  Nebbia  Neve Forte  Precipitazioni Forti  Vento > 20 kt
SIGMETs :   Varie  Temporali  Ghiacco  Turbolenza  Onda orograficha  Ceneri Vulcaniche






- Altitudine del aeroporto : 768 ft
- Codice IATA : MXP


LIMC - Milano Malpensa

ULTIMO METAR :
  • 231950Z 01004KT 9999 R35R/0550D R17L/1200D R35L/P2000N BCFG NSC 04/03 Q0998 NOSIG

METARs OBSOLETI :
  • 231920Z VRB01KT 9999 R35R/1500D R17L/1700D R35L/0700D BCFG NSC 05/03 Q0998 NOSIG
  • 231850Z VRB02KT 9999 MIFG NSC 06/05 Q0998 NOSIG
  • 231820Z 10004KT CAVOK 05/04 Q0997 NOSIG
  • 231750Z 13003KT CAVOK 07/05 Q0997 NOSIG
  • 231720Z 09002KT CAVOK 08/05 Q0997 NOSIG
  • 231650Z 09003KT CAVOK 09/04 Q0996 NOSIG
  • 231620Z 10004KT CAVOK 09/05 Q0996 NOSIG
  • 231550Z 15005KT 110V180 9999 SCT020 10/05 Q0996 NOSIG
  • 231520Z 13004KT 090V160 9999 SCT020 10/05 Q0996 NOSIG

TAF TAF LIMC
Valido dal 23 a 18 ore il 25 a 00 ore UTC


231700Z 2318/2424 VRB05KT 9999 FEW020
TEMPO 2320/2406 2000 BR
TEMPO 2412/2418 SHRA



MetMap, La meteo Aeronautica in un colpo d'occhio ! - Copyright ORBIFLY Dicembre 2007 - Disclaimer

ORBIFLY MET'MAP TEAM :

Programmazione e sviluppo : Alexandra Zaïnal
Concezione : Baudouin d'Aumeries
Supporto tecnico e logistico : Manuel Goepfert
Aiuto : Marc-Olivier Méhu
Aiuto per la traduzione : Arnaldo La Scala




FONTI E CREDITI :

   NOAA